sensor_id;sensor_type;location;lat;lon;timestamp;pressure;altitude;pressure_sealevel;temperature;humidity
70343;BME280;57767;42.068;24.752;2024-03-08T00:00:26;99004.88;;;6.78;94.24
70343;BME280;57767;42.068;24.752;2024-03-08T00:01:28;99014.22;;;6.80;94.41
70343;BME280;57767;42.068;24.752;2024-03-08T00:02:30;99013.56;;;6.78;93.95
70343;BME280;57767;42.068;24.752;2024-03-08T00:03:31;99005.78;;;6.70;94.04
70343;BME280;57767;42.068;24.752;2024-03-08T00:04:34;99011.28;;;6.75;93.94
70343;BME280;57767;42.068;24.752;2024-03-08T00:05:36;99012.63;;;6.71;94.02
70343;BME280;57767;42.068;24.752;2024-03-08T00:06:40;99005.41;;;6.73;94.03
70343;BME280;57767;42.068;24.752;2024-03-08T00:07:42;99015.72;;;6.75;93.83
70343;BME280;57767;42.068;24.752;2024-03-08T00:08:44;98997.44;;;6.67;93.94
70343;BME280;57767;42.068;24.752;2024-03-08T00:09:46;99006.78;;;6.69;94.31
70343;BME280;57767;42.068;24.752;2024-03-08T00:10:47;98998.97;;;6.61;94.33
70343;BME280;57767;42.068;24.752;2024-03-08T00:11:49;98997.97;;;6.62;94.52
70343;BME280;57767;42.068;24.752;2024-03-08T00:12:51;98997.88;;;6.56;94.94
70343;BME280;57767;42.068;24.752;2024-03-08T00:13:54;98996.94;;;6.48;94.77
70343;BME280;57767;42.068;24.752;2024-03-08T00:14:56;98990.25;;;6.46;95.09
70343;BME280;57767;42.068;24.752;2024-03-08T00:15:58;98996.25;;;6.55;95.10
70343;BME280;57767;42.068;24.752;2024-03-08T00:17:00;99000.50;;;6.56;95.37
70343;BME280;57767;42.068;24.752;2024-03-08T00:18:01;98999.34;;;6.58;95.11
70343;BME280;57767;42.068;24.752;2024-03-08T00:19:03;99000.03;;;6.52;95.08
70343;BME280;57767;42.068;24.752;2024-03-08T00:20:05;99003.19;;;6.47;95.02
70343;BME280;57767;42.068;24.752;2024-03-08T00:21:09;99000.41;;;6.49;95.31
70343;BME280;57767;42.068;24.752;2024-03-08T00:22:11;98997.50;;;6.44;95.14
70343;BME280;57767;42.068;24.752;2024-03-08T00:23:13;98970.13;;;6.24;95.88
70343;BME280;57767;42.068;24.752;2024-03-08T00:24:14;98989.69;;;6.36;95.93
70343;BME280;57767;42.068;24.752;2024-03-08T00:25:16;98993.91;;;6.45;95.94
70343;BME280;57767;42.068;24.752;2024-03-08T00:26:18;98982.13;;;6.41;95.90
70343;BME280;57767;42.068;24.752;2024-03-08T00:27:19;98983.41;;;6.45;95.52
70343;BME280;57767;42.068;24.752;2024-03-08T00:28:22;98985.81;;;6.46;95.50
70343;BME280;57767;42.068;24.752;2024-03-08T00:29:26;98987.63;;;6.46;95.35
70343;BME280;57767;42.068;24.752;2024-03-08T00:30:29;98990.91;;;6.48;94.98
70343;BME280;57767;42.068;24.752;2024-03-08T00:31:30;98993.16;;;6.51;94.82
70343;BME280;57767;42.068;24.752;2024-03-08T00:32:35;98993.81;;;6.53;94.72
70343;BME280;57767;42.068;24.752;2024-03-08T00:33:38;98991.19;;;6.53;94.79
70343;BME280;57767;42.068;24.752;2024-03-08T00:34:41;98999.88;;;6.54;95.15
70343;BME280;57767;42.068;24.752;2024-03-08T00:35:42;98993.16;;;6.51;94.69
70343;BME280;57767;42.068;24.752;2024-03-08T00:36:44;98997.94;;;6.47;94.75
70343;BME280;57767;42.068;24.752;2024-03-08T00:37:46;98999.41;;;6.50;94.71
70343;BME280;57767;42.068;24.752;2024-03-08T00:38:50;99002.03;;;6.50;94.86
70343;BME280;57767;42.068;24.752;2024-03-08T00:39:52;98996.53;;;6.45;95.28
70343;BME280;57767;42.068;24.752;2024-03-08T00:40:54;98998.84;;;6.40;95.55
70343;BME280;57767;42.068;24.752;2024-03-08T00:41:57;98995.69;;;6.44;95.76
70343;BME280;57767;42.068;24.752;2024-03-08T00:42:58;98998.59;;;6.50;95.66
70343;BME280;57767;42.068;24.752;2024-03-08T00:44:00;98990.63;;;6.43;95.65
70343;BME280;57767;42.068;24.752;2024-03-08T00:45:02;99000.56;;;6.47;95.96
70343;BME280;57767;42.068;24.752;2024-03-08T00:46:04;98993.06;;;6.44;95.75
70343;BME280;57767;42.068;24.752;2024-03-08T00:47:06;98987.19;;;6.42;95.57
70343;BME280;57767;42.068;24.752;2024-03-08T00:48:08;98990.84;;;6.33;95.80
70343;BME280;57767;42.068;24.752;2024-03-08T00:49:09;98992.06;;;6.31;95.93
70343;BME280;57767;42.068;24.752;2024-03-08T00:50:11;98989.47;;;6.23;95.85
70343;BME280;57767;42.068;24.752;2024-03-08T00:51:14;98994.66;;;6.31;96.45
70343;BME280;57767;42.068;24.752;2024-03-08T00:52:18;98993.69;;;6.32;96.24
70343;BME280;57767;42.068;24.752;2024-03-08T00:53:20;98983.06;;;6.25;96.51
70343;BME280;57767;42.068;24.752;2024-03-08T00:54:22;98968.88;;;6.20;96.42
70343;BME280;57767;42.068;24.752;2024-03-08T00:55:23;98987.03;;;6.21;96.80
70343;BME280;57767;42.068;24.752;2024-03-08T00:56:25;98979.38;;;6.20;97.13
70343;BME280;57767;42.068;24.752;2024-03-08T00:57:27;98984.41;;;6.21;97.57
70343;BME280;57767;42.068;24.752;2024-03-08T00:58:29;98986.22;;;6.21;97.64
70343;BME280;57767;42.068;24.752;2024-03-08T00:59:32;98978.56;;;6.19;98.05
70343;BME280;57767;42.068;24.752;2024-03-08T01:00:36;98979.97;;;6.22;97.68
70343;BME280;57767;42.068;24.752;2024-03-08T01:01:43;98989.22;;;6.18;97.95
70343;BME280;57767;42.068;24.752;2024-03-08T01:02:45;98978.56;;;6.19;98.23
70343;BME280;57767;42.068;24.752;2024-03-08T01:03:47;98969.56;;;6.14;97.62
70343;BME280;57767;42.068;24.752;2024-03-08T01:04:50;98980.22;;;6.12;98.44
70343;BME280;57767;42.068;24.752;2024-03-08T01:05:51;98974.25;;;6.03;98.45
70343;BME280;57767;42.068;24.752;2024-03-08T01:06:53;98970.72;;;6.11;98.84
70343;BME280;57767;42.068;24.752;2024-03-08T01:07:54;98979.41;;;6.11;98.89
70343;BME280;57767;42.068;24.752;2024-03-08T01:08:56;98974.00;;;6.13;98.79
70343;BME280;57767;42.068;24.752;2024-03-08T01:09:58;98975.97;;;6.11;98.84
70343;BME280;57767;42.068;24.752;2024-03-08T01:10:59;98979.41;;;6.11;98.76
70343;BME280;57767;42.068;24.752;2024-03-08T01:12:01;98974.34;;;6.10;99.14
70343;BME280;57767;42.068;24.752;2024-03-08T01:13:03;98977.94;;;6.09;98.90
70343;BME280;57767;42.068;24.752;2024-03-08T01:14:05;98972.31;;;5.97;99.65
70343;BME280;57767;42.068;24.752;2024-03-08T01:15:07;98969.59;;;5.91;99.40
70343;BME280;57767;42.068;24.752;2024-03-08T01:16:08;98963.53;;;5.90;99.88
70343;BME280;57767;42.068;24.752;2024-03-08T01:17:14;98980.06;;;5.91;100.00
70343;BME280;57767;42.068;24.752;2024-03-08T01:18:15;98976.63;;;5.90;100.00
70343;BME280;57767;42.068;24.752;2024-03-08T01:19:17;98976.63;;;5.90;100.00
70343;BME280;57767;42.068;24.752;2024-03-08T01:20:19;98974.50;;;5.94;100.00
70343;BME280;57767;42.068;24.752;2024-03-08T01:21:21;98973.38;;;5.88;100.00
70343;BME280;57767;42.068;24.752;2024-03-08T01:22:23;98975.81;;;5.90;100.00
70343;BME280;57767;42.068;24.752;2024-03-08T01:23:25;98977.94;;;5.94;100.00
70343;BME280;57767;42.068;24.752;2024-03-08T01:24:27;98976.72;;;5.97;100.00
70343;BME280;57767;42.068;24.752;2024-03-08T01:25:28;98968.06;;;5.96;100.00
70343;BME280;57767;42.068;24.752;2024-03-08T01:26:30;98982.28;;;6.02;100.00
70343;BME280;57767;42.068;24.752;2024-03-08T01:27:32;98984.09;;;6.01;100.00
70343;BME280;57767;42.068;24.752;2024-03-08T01:28:33;98985.53;;;6.04;100.00
70343;BME280;57767;42.068;24.752;2024-03-08T01:29:35;98987.53;;;6.02;100.00
70343;BME280;57767;42.068;24.752;2024-03-08T01:30:37;98974.59;;;6.00;100.00
70343;BME280;57767;42.068;24.752;2024-03-08T01:31:39;98985.72;;;6.02;100.00
70343;BME280;57767;42.068;24.752;2024-03-08T01:32:41;98985.53;;;6.04;100.00
70343;BME280;57767;42.068;24.752;2024-03-08T01:33:44;98979.84;;;6.00;100.00
70343;BME280;57767;42.068;24.752;2024-03-08T01:34:45;98987.38;;;5.95;100.00
70343;BME280;57767;42.068;24.752;2024-03-08T01:35:47;98989.41;;;5.93;100.00
70343;BME280;57767;42.068;24.752;2024-03-08T01:36:49;98982.16;;;5.95;100.00
70343;BME280;57767;42.068;24.752;2024-03-08T01:37:50;98989.22;;;5.95;100.00
70343;BME280;57767;42.068;24.752;2024-03-08T01:38:52;98977.44;;;5.91;100.00
70343;BME280;57767;42.068;24.752;2024-03-08T01:39:54;98992.28;;;5.98;100.00
70343;BME280;57767;42.068;24.752;2024-03-08T01:40:55;98984.44;;;5.98;100.00
70343;BME280;57767;42.068;24.752;2024-03-08T01:41:58;98992.63;;;5.95;100.00
70343;BME280;57767;42.068;24.752;2024-03-08T01:43:36;98999.56;;;5.88;100.00
70343;BME280;57767;42.068;24.752;2024-03-08T01:44:37;99002.66;;;5.92;100.00
70343;BME280;57767;42.068;24.752;2024-03-08T01:45:38;98994.63;;;5.93;100.00
70343;BME280;57767;42.068;24.752;2024-03-08T01:46:40;99001.69;;;5.93;100.00
70343;BME280;57767;42.068;24.752;2024-03-08T01:47:41;98988.91;;;5.90;100.00
70343;BME280;57767;42.068;24.752;2024-03-08T01:48:44;98995.78;;;5.91;100.00
70343;BME280;57767;42.068;24.752;2024-03-08T01:49:45;98992.47;;;5.97;100.00
70343;BME280;57767;42.068;24.752;2024-03-08T01:50:47;98993.00;;;5.92;100.00
70343;BME280;57767;42.068;24.752;2024-03-08T01:51:49;98989.22;;;5.87;100.00
70343;BME280;57767;42.068;24.752;2024-03-08T01:52:51;99004.31;;;5.93;100.00
70343;BME280;57767;42.068;24.752;2024-03-08T01:53:54;98986.13;;;5.91;100.00
70343;BME280;57767;42.068;24.752;2024-03-08T01:54:59;98987.75;;;5.92;100.00
70343;BME280;57767;42.068;24.752;2024-03-08T01:56:02;98987.59;;;5.86;100.00
70343;BME280;57767;42.068;24.752;2024-03-08T01:57:04;98993.66;;;5.86;100.00
70343;BME280;57767;42.068;24.752;2024-03-08T01:58:06;98978.66;;;5.80;100.00
70343;BME280;57767;42.068;24.752;2024-03-08T01:59:08;98997.63;;;5.82;100.00
70343;BME280;57767;42.068;24.752;2024-03-08T02:00:11;98996.44;;;5.85;100.00
70343;BME280;57767;42.068;24.752;2024-03-08T02:01:13;98994.66;;;5.85;100.00
70343;BME280;57767;42.068;24.752;2024-03-08T02:02:18;98991.09;;;5.78;100.00
70343;BME280;57767;42.068;24.752;2024-03-08T02:03:21;98995.00;;;5.82;100.00
70343;BME280;57767;42.068;24.752;2024-03-08T02:04:23;98994.00;;;5.83;100.00
70343;BME280;57767;42.068;24.752;2024-03-08T02:05:26;98994.53;;;5.79;100.00
70343;BME280;57767;42.068;24.752;2024-03-08T02:06:27;98989.81;;;5.74;100.00
70343;BME280;57767;42.068;24.752;2024-03-08T02:07:29;98987.03;;;5.75;100.00
70343;BME280;57767;42.068;24.752;2024-03-08T02:08:30;98990.78;;;5.73;100.00
70343;BME280;57767;42.068;24.752;2024-03-08T02:09:33;98975.47;;;5.62;100.00
70343;BME280;57767;42.068;24.752;2024-03-08T02:10:34;98990.16;;;5.71;100.00
70343;BME280;57767;42.068;24.752;2024-03-08T02:11:36;98988.50;;;5.70;100.00
70343;BME280;57767;42.068;24.752;2024-03-08T02:12:39;99000.28;;;5.74;100.00
70343;BME280;57767;42.068;24.752;2024-03-08T02:13:40;98990.78;;;5.73;100.00
70343;BME280;57767;42.068;24.752;2024-03-08T02:14:42;98996.69;;;5.75;100.00
70343;BME280;57767;42.068;24.752;2024-03-08T02:15:59;98995.53;;;5.78;100.00
70343;BME280;57767;42.068;24.752;2024-03-08T02:17:02;98994.06;;;5.75;100.00
70343;BME280;57767;42.068;24.752;2024-03-08T02:18:04;98995.03;;;5.74;100.00
70343;BME280;57767;42.068;24.752;2024-03-08T02:19:06;98991.94;;;5.70;100.00
70343;BME280;57767;42.068;24.752;2024-03-08T02:20:11;98993.41;;;5.73;100.00
70343;BME280;57767;42.068;24.752;2024-03-08T02:21:17;98995.75;;;5.68;100.00
70343;BME280;57767;42.068;24.752;2024-03-08T02:22:22;98989.69;;;5.67;100.00
70343;BME280;57767;42.068;24.752;2024-03-08T02:23:24;98991.03;;;5.63;100.00
70343;BME280;57767;42.068;24.752;2024-03-08T02:24:26;98992.50;;;5.66;100.00
70343;BME280;57767;42.068;24.752;2024-03-08T02:25:28;98990.84;;;5.65;100.00
70343;BME280;57767;42.068;24.752;2024-03-08T02:26:29;98980.06;;;5.60;100.00
70343;BME280;57767;42.068;24.752;2024-03-08T02:27:31;98992.31;;;5.67;100.00
70343;BME280;57767;42.068;24.752;2024-03-08T02:28:33;98994.41;;;5.72;100.00
70343;BME280;57767;42.068;24.752;2024-03-08T02:29:36;98988.72;;;5.68;100.00
70343;BME280;57767;42.068;24.752;2024-03-08T02:30:38;98992.59;;;5.72;100.00
70343;BME280;57767;42.068;24.752;2024-03-08T02:31:40;98987.91;;;5.68;100.00
70343;BME280;57767;42.068;24.752;2024-03-08T02:32:41;98990.69;;;5.66;100.00
70343;BME280;57767;42.068;24.752;2024-03-08T02:33:43;98991.66;;;5.65;100.00
70343;BME280;57767;42.068;24.752;2024-03-08T02:34:45;98991.94;;;5.70;100.00
70343;BME280;57767;42.068;24.752;2024-03-08T02:35:47;98988.06;;;5.66;100.00
70343;BME280;57767;42.068;24.752;2024-03-08T02:36:49;98979.72;;;5.63;100.00
70343;BME280;57767;42.068;24.752;2024-03-08T02:37:51;98964.09;;;5.47;100.00
70343;BME280;57767;42.068;24.752;2024-03-08T02:38:52;98986.94;;;5.61;100.00
70343;BME280;57767;42.068;24.752;2024-03-08T02:39:55;98982.69;;;5.60;100.00
70343;BME280;57767;42.068;24.752;2024-03-08T02:40:56;98991.66;;;5.65;100.00
70343;BME280;57767;42.068;24.752;2024-03-08T02:41:58;98995.75;;;5.68;100.00
70343;BME280;57767;42.068;24.752;2024-03-08T02:42:59;98997.66;;;5.74;100.00
70343;BME280;57767;42.068;24.752;2024-03-08T02:44:01;98996.19;;;5.71;100.00
70343;BME280;57767;42.068;24.752;2024-03-08T02:45:03;98986.53;;;5.72;100.00
70343;BME280;57767;42.068;24.752;2024-03-08T02:46:07;98996.56;;;5.68;100.00
70343;BME280;57767;42.068;24.752;2024-03-08T02:47:08;98998.06;;;5.63;100.00
70343;BME280;57767;42.068;24.752;2024-03-08T02:48:10;99000.69;;;5.63;100.00
70343;BME280;57767;42.068;24.752;2024-03-08T02:49:12;98996.91;;;5.65;100.00
70343;BME280;57767;42.068;24.752;2024-03-08T02:50:14;99000.00;;;5.69;100.00
70343;BME280;57767;42.068;24.752;2024-03-08T02:51:17;98999.06;;;5.62;100.00
70343;BME280;57767;42.068;24.752;2024-03-08T02:52:19;98997.06;;;5.64;100.00
70343;BME280;57767;42.068;24.752;2024-03-08T02:53:22;99003.25;;;5.71;100.00
70343;BME280;57767;42.068;24.752;2024-03-08T02:54:26;98993.59;;;5.71;100.00
70343;BME280;57767;42.068;24.752;2024-03-08T02:55:27;98995.03;;;5.74;100.00
70343;BME280;57767;42.068;24.752;2024-03-08T02:56:29;98998.47;;;5.74;100.00
70343;BME280;57767;42.068;24.752;2024-03-08T02:57:31;98988.50;;;5.70;100.00
70343;BME280;57767;42.068;24.752;2024-03-08T02:58:33;98981.66;;;5.69;100.00
70343;BME280;57767;42.068;24.752;2024-03-08T02:59:35;98991.75;;;5.80;100.00
70343;BME280;57767;42.068;24.752;2024-03-08T03:00:37;98988.13;;;5.81;100.00
70343;BME280;57767;42.068;24.752;2024-03-08T03:01:40;98986.34;;;5.82;100.00
70343;BME280;57767;42.068;24.752;2024-03-08T03:02:42;98992.56;;;5.81;100.00
70343;BME280;57767;42.068;24.752;2024-03-08T03:03:44;98993.56;;;5.80;100.00
70343;BME280;57767;42.068;24.752;2024-03-08T03:04:45;98987.03;;;5.75;100.00
70343;BME280;57767;42.068;24.752;2024-03-08T03:05:47;98990.13;;;5.79;100.00
70343;BME280;57767;42.068;24.752;2024-03-08T03:06:50;98990.63;;;5.74;100.00
70343;BME280;57767;42.068;24.752;2024-03-08T03:07:52;98987.53;;;5.71;100.00
70343;BME280;57767;42.068;24.752;2024-03-08T03:08:53;98994.72;;;5.77;100.00
70343;BME280;57767;42.068;24.752;2024-03-08T03:09:55;98991.44;;;5.75;100.00
70343;BME280;57767;42.068;24.752;2024-03-08T03:10:57;98997.31;;;5.77;100.00
70343;BME280;57767;42.068;24.752;2024-03-08T03:11:59;98994.06;;;5.75;100.00
70343;BME280;57767;42.068;24.752;2024-03-08T03:13:00;98990.78;;;5.73;100.00
70343;BME280;57767;42.068;24.752;2024-03-08T03:14:02;98989.28;;;5.79;100.00
70343;BME280;57767;42.068;24.752;2024-03-08T03:15:04;99002.88;;;5.82;100.00
70343;BME280;57767;42.068;24.752;2024-03-08T03:16:06;98991.56;;;5.82;100.00
70343;BME280;57767;42.068;24.752;2024-03-08T03:17:08;98998.59;;;5.89;100.00
70343;BME280;57767;42.068;24.752;2024-03-08T03:18:11;99001.31;;;5.96;100.00
70343;BME280;57767;42.068;24.752;2024-03-08T03:19:13;98995.91;;;5.97;100.00
70343;BME280;57767;42.068;24.752;2024-03-08T03:20:17;99001.63;;;6.01;100.00
70343;BME280;57767;42.068;24.752;2024-03-08T03:21:28;99005.94;;;5.94;100.00
70343;BME280;57767;42.068;24.752;2024-03-08T03:22:33;98999.88;;;5.93;100.00
70343;BME280;57767;42.068;24.752;2024-03-08T03:23:36;99001.50;;;5.94;100.00
70343;BME280;57767;42.068;24.752;2024-03-08T03:24:38;98993.00;;;5.92;100.00
70343;BME280;57767;42.068;24.752;2024-03-08T03:25:41;99000.69;;;5.94;100.00
70343;BME280;57767;42.068;24.752;2024-03-08T03:26:43;99001.84;;;5.91;100.00
70343;BME280;57767;42.068;24.752;2024-03-08T03:27:45;99002.50;;;5.93;100.00
70343;BME280;57767;42.068;24.752;2024-03-08T03:28:47;99007.91;;;5.92;100.00
70343;BME280;57767;42.068;24.752;2024-03-08T03:29:49;99008.72;;;5.92;100.00
70343;BME280;57767;42.068;24.752;2024-03-08T03:30:52;99003.81;;;5.89;100.00
70343;BME280;57767;42.068;24.752;2024-03-08T03:31:54;99007.44;;;5.88;100.00
70343;BME280;57767;42.068;24.752;2024-03-08T03:32:55;99008.72;;;5.92;100.00
70343;BME280;57767;42.068;24.752;2024-03-08T03:34:00;99007.44;;;5.88;100.00
70343;BME280;57767;42.068;24.752;2024-03-08T03:35:05;99013.81;;;5.86;100.00
70343;BME280;57767;42.068;24.752;2024-03-08T03:36:07;99014.31;;;5.89;100.00
70343;BME280;57767;42.068;24.752;2024-03-08T03:37:11;99014.63;;;5.86;100.00
70343;BME280;57767;42.068;24.752;2024-03-08T03:38:14;98995.81;;;5.83;100.00
70343;BME280;57767;42.068;24.752;2024-03-08T03:39:16;99006.13;;;5.84;100.00
70343;BME280;57767;42.068;24.752;2024-03-08T03:40:18;99008.91;;;5.91;100.00
70343;BME280;57767;42.068;24.752;2024-03-08T03:41:20;99011.34;;;5.92;100.00
70343;BME280;57767;42.068;24.752;2024-03-08T03:42:22;99015.94;;;5.90;100.00
70343;BME280;57767;42.068;24.752;2024-03-08T03:43:25;99006.13;;;5.84;100.00
70343;BME280;57767;42.068;24.752;2024-03-08T03:44:28;99014.63;;;5.86;100.00
70343;BME280;57767;42.068;24.752;2024-03-08T03:45:30;99015.97;;;5.82;100.00
70343;BME280;57767;42.068;24.752;2024-03-08T03:46:37;99020.19;;;5.83;100.00
70343;BME280;57767;42.068;24.752;2024-03-08T03:47:39;99014.63;;;5.86;100.00
70343;BME280;57767;42.068;24.752;2024-03-08T03:48:40;99017.06;;;5.88;100.00
70343;BME280;57767;42.068;24.752;2024-03-08T03:49:43;99010.25;;;5.79;100.00
70343;BME280;57767;42.068;24.752;2024-03-08T03:50:46;99018.94;;;5.79;100.00
70343;BME280;57767;42.068;24.752;2024-03-08T03:51:48;99017.94;;;5.80;100.00
70343;BME280;57767;42.068;24.752;2024-03-08T03:52:49;99016.31;;;5.79;100.00
70343;BME280;57767;42.068;24.752;2024-03-08T03:53:51;99016.16;;;5.81;100.00
70343;BME280;57767;42.068;24.752;2024-03-08T03:54:54;99018.47;;;5.75;100.00
70343;BME280;57767;42.068;24.752;2024-03-08T03:55:55;99013.88;;;5.78;100.00
70343;BME280;57767;42.068;24.752;2024-03-08T03:56:58;99017.56;;;5.83;100.00
70343;BME280;57767;42.068;24.752;2024-03-08T03:57:59;99009.72;;;5.83;100.00
70343;BME280;57767;42.068;24.752;2024-03-08T03:59:02;99019.84;;;5.86;100.00
70343;BME280;57767;42.068;24.752;2024-03-08T04:00:04;99017.56;;;5.83;100.00
70343;BME280;57767;42.068;24.752;2024-03-08T04:01:08;99024.13;;;5.87;100.00
70343;BME280;57767;42.068;24.752;2024-03-08T04:02:11;99015.31;;;5.80;100.00
70343;BME280;57767;42.068;24.752;2024-03-08T04:03:12;99015.03;;;5.75;100.00
70343;BME280;57767;42.068;24.752;2024-03-08T04:04:14;99018.47;;;5.75;100.00
70343;BME280;57767;42.068;24.752;2024-03-08T04:05:15;99018.16;;;5.70;100.00
70343;BME280;57767;42.068;24.752;2024-03-08T04:06:17;99020.31;;;5.67;100.00
70343;BME280;57767;42.068;24.752;2024-03-08T04:07:19;99020.66;;;5.64;100.00
70343;BME280;57767;42.068;24.752;2024-03-08T04:08:20;99014.78;;;5.62;100.00
70343;BME280;57767;42.068;24.752;2024-03-08T04:09:22;99017.38;;;5.62;100.00
70343;BME280;57767;42.068;24.752;2024-03-08T04:10:23;99021.81;;;5.61;100.00
70343;BME280;57767;42.068;24.752;2024-03-08T04:11:25;99017.22;;;5.63;100.00
70343;BME280;57767;42.068;24.752;2024-03-08T04:12:27;99015.91;;;5.67;100.00
70343;BME280;57767;42.068;24.752;2024-03-08T04:13:30;99022.13;;;5.66;100.00
70343;BME280;57767;42.068;24.752;2024-03-08T04:14:32;99019.03;;;5.63;100.00
70343;BME280;57767;42.068;24.752;2024-03-08T04:15:34;99016.56;;;5.61;100.00
70343;BME280;57767;42.068;24.752;2024-03-08T04:16:36;99031.00;;;5.57;100.00
70343;BME280;57767;42.068;24.752;2024-03-08T04:17:38;99014.69;;;5.47;100.00
70343;BME280;57767;42.068;24.752;2024-03-08T04:18:40;99020.72;;;5.48;100.00
70343;BME280;57767;42.068;24.752;2024-03-08T04:19:42;99024.81;;;5.50;100.00
70343;BME280;57767;42.068;24.752;2024-03-08T04:20:43;99029.56;;;5.55;100.00
70343;BME280;57767;42.068;24.752;2024-03-08T04:21:45;99004.41;;;5.37;100.00
70343;BME280;57767;42.068;24.752;2024-03-08T04:22:47;99022.03;;;5.52;100.00
70343;BME280;57767;42.068;24.752;2024-03-08T04:23:51;99032.03;;;5.48;100.00
70343;BME280;57767;42.068;24.752;2024-03-08T04:24:53;99022.69;;;5.46;100.00
70343;BME280;57767;42.068;24.752;2024-03-08T04:25:54;99027.31;;;5.44;100.00
70343;BME280;57767;42.068;24.752;2024-03-08T04:26:56;99032.34;;;5.45;100.00
70343;BME280;57767;42.068;24.752;2024-03-08T04:27:58;99031.53;;;5.45;100.00
70343;BME280;57767;42.068;24.752;2024-03-08T04:28:59;99034.81;;;5.47;100.00
70343;BME280;57767;42.068;24.752;2024-03-08T04:30:04;99027.00;;;5.38;100.00
70343;BME280;57767;42.068;24.752;2024-03-08T04:31:09;99030.91;;;5.43;100.00
70343;BME280;57767;42.068;24.752;2024-03-08T04:32:12;99031.41;;;5.38;100.00
70343;BME280;57767;42.068;24.752;2024-03-08T04:33:14;99029.94;;;5.35;100.00
70343;BME280;57767;42.068;24.752;2024-03-08T04:34:18;99014.28;;;5.27;100.00
70343;BME280;57767;42.068;24.752;2024-03-08T04:35:19;99015.91;;;5.28;100.00
70343;BME280;57767;42.068;24.752;2024-03-08T04:36:22;99034.69;;;5.40;100.00
70343;BME280;57767;42.068;24.752;2024-03-08T04:37:24;99029.28;;;5.42;100.00
70343;BME280;57767;42.068;24.752;2024-03-08T04:38:26;99026.19;;;5.38;100.00
70343;BME280;57767;42.068;24.752;2024-03-08T04:39:28;99032.56;;;5.35;100.00
70343;BME280;57767;42.068;24.752;2024-03-08T04:40:30;99032.09;;;5.32;100.00
70343;BME280;57767;42.068;24.752;2024-03-08T04:41:32;99034.91;;;5.30;100.00
70343;BME280;57767;42.068;24.752;2024-03-08T04:42:37;99035.53;;;5.32;100.00
70343;BME280;57767;42.068;24.752;2024-03-08T04:43:40;99035.34;;;5.34;100.00
70343;BME280;57767;42.068;24.752;2024-03-08T04:44:41;99037.50;;;5.30;100.00
70343;BME280;57767;42.068;24.752;2024-03-08T04:45:43;99030.50;;;5.23;100.00
70343;BME280;57767;42.068;24.752;2024-03-08T04:46:45;99035.56;;;5.24;100.00
70343;BME280;57767;42.068;24.752;2024-03-08T04:47:48;99031.47;;;5.30;100.00
70343;BME280;57767;42.068;24.752;2024-03-08T04:48:50;99022.78;;;5.29;100.00
70343;BME280;57767;42.068;24.752;2024-03-08T04:49:52;99039.41;;;5.45;100.00
70343;BME280;57767;42.068;24.752;2024-03-08T04:50:55;99041.06;;;5.37;100.00
70343;BME280;57767;42.068;24.752;2024-03-08T04:51:57;99041.91;;;5.38;100.00
70343;BME280;57767;42.068;24.752;2024-03-08T04:52:58;99040.09;;;5.38;100.00
70343;BME280;57767;42.068;24.752;2024-03-08T04:54:00;99034.53;;;5.33;100.00
70343;BME280;57767;42.068;24.752;2024-03-08T04:55:02;99033.25;;;5.29;100.00
70343;BME280;57767;42.068;24.752;2024-03-08T04:56:06;99042.38;;;5.33;100.00
70343;BME280;57767;42.068;24.752;2024-03-08T04:57:08;99013.69;;;5.17;100.00
70343;BME280;57767;42.068;24.752;2024-03-08T04:58:10;99048.28;;;5.35;100.00
70343;BME280;57767;42.068;24.752;2024-03-08T04:59:12;99043.38;;;5.32;100.00
70343;BME280;57767;42.068;24.752;2024-03-08T05:00:14;99054.66;;;5.33;100.00
70343;BME280;57767;42.068;24.752;2024-03-08T05:01:16;99048.81;;;5.31;100.00
70343;BME280;57767;42.068;24.752;2024-03-08T05:02:18;99038.00;;;5.26;100.00
70343;BME280;57767;42.068;24.752;2024-03-08T05:03:20;99048.97;;;5.29;100.00
70343;BME280;57767;42.068;24.752;2024-03-08T05:04:22;99033.44;;;5.28;100.00
70343;BME280;57767;42.068;24.752;2024-03-08T05:05:24;99048.28;;;5.35;100.00
70343;BME280;57767;42.068;24.752;2024-03-08T05:06:27;99052.53;;;5.36;100.00
70343;BME280;57767;42.068;24.752;2024-03-08T05:07:30;99033.25;;;5.29;100.00
70343;BME280;57767;42.068;24.752;2024-03-08T05:08:31;99041.41;;;5.34;100.00
70343;BME280;57767;42.068;24.752;2024-03-08T05:09:34;99049.91;;;5.36;100.00
70343;BME280;57767;42.068;24.752;2024-03-08T05:10:37;99046.31;;;5.37;100.00
70343;BME280;57767;42.068;24.752;2024-03-08T05:11:43;99055.31;;;5.43;100.00
70343;BME280;57767;42.068;24.752;2024-03-08T05:12:48;99053.00;;;5.40;100.00
70343;BME280;57767;42.068;24.752;2024-03-08T05:13:50;99048.44;;;5.34;100.00
70343;BME280;57767;42.068;24.752;2024-03-08T05:14:52;99052.25;;;5.31;100.00
70343;BME280;57767;42.068;24.752;2024-03-08T05:15:53;99046.53;;;5.28;100.00
70343;BME280;57767;42.068;24.752;2024-03-08T05:16:55;99053.84;;;5.32;100.00
70343;BME280;57767;42.068;24.752;2024-03-08T05:17:57;99052.41;;;5.30;100.00
70343;BME280;57767;42.068;24.752;2024-03-08T05:18:59;99057.28;;;5.33;100.00
70343;BME280;57767;42.068;24.752;2024-03-08T05:20:01;99065.94;;;5.33;100.00
70343;BME280;57767;42.068;24.752;2024-03-08T05:21:03;99061.06;;;5.30;100.00
70343;BME280;57767;42.068;24.752;2024-03-08T05:22:05;99061.91;;;5.31;100.00
70343;BME280;57767;42.068;24.752;2024-03-08T05:23:07;99059.91;;;5.33;100.00
70343;BME280;57767;42.068;24.752;2024-03-08T05:24:09;99059.59;;;5.28;100.00
70343;BME280;57767;42.068;24.752;2024-03-08T05:25:11;99072.53;;;5.29;100.00
70343;BME280;57767;42.068;24.752;2024-03-08T05:26:13;99070.75;;;5.22;100.00
70343;BME280;57767;42.068;24.752;2024-03-08T05:27:15;99076.50;;;5.17;100.00